Time;durP1;ratioP1;P1;durP2;ratioP2;P2;SDS_P1;SDS_P2;PMS_P1;PMS_P2;Temp;Humidity;BMP_temperature;BMP_pressure;BME280_temperature;BME280_humidity;BME280_pressure;Samples;Min_cycle;Max_cycle;Signal;HPM_P1;HPM_P2
2021/12/31 00:02:18;;;;;;;1.73;0.80;;;10.80;96.30;;;;;;4956874;29;20445;-78
2021/12/31 00:04:44;;;;;;;1.20;0.83;;;10.80;96.30;;;;;;4957048;29;20174;-76
2021/12/31 00:07:09;;;;;;;1.30;0.80;;;10.80;96.30;;;;;;4956674;29;20171;-78
2021/12/31 00:09:36;;;;;;;1.10;0.60;;;10.80;96.30;;;;;;4957079;29;20175;-77
2021/12/31 00:12:03;;;;;;;1.20;0.70;;;10.70;96.30;;;;;;4956765;29;20286;-77
2021/12/31 00:14:29;;;;;;;2.30;0.83;;;10.70;96.30;;;;;;4956857;29;20465;-77
2021/12/31 00:16:55;;;;;;;0.93;0.77;;;10.70;96.30;;;;;;4956597;29;20422;-77
2021/12/31 00:19:21;;;;;;;1.47;0.70;;;10.80;96.30;;;;;;4939327;29;20202;-77
2021/12/31 00:21:49;;;;;;;0.90;0.70;;;10.70;96.30;;;;;;4939421;29;20254;-78
2021/12/31 00:24:14;;;;;;;1.20;0.57;;;10.80;96.30;;;;;;4939439;29;20502;-76
2021/12/31 00:26:40;;;;;;;0.90;0.70;;;10.80;96.30;;;;;;4939152;29;20493;-76
2021/12/31 00:29:05;;;;;;;1.67;0.70;;;10.70;96.30;;;;;;4956615;29;20222;-77
2021/12/31 00:31:31;;;;;;;0.90;0.63;;;10.70;96.30;;;;;;4956545;29;20202;-77
2021/12/31 00:33:56;;;;;;;1.10;0.70;;;10.70;96.30;;;;;;4939247;29;20174;-78
2021/12/31 00:36:22;;;;;;;1.00;0.70;;;10.80;96.30;;;;;;4938735;29;20172;-78
2021/12/31 00:38:47;;;;;;;0.80;0.60;;;10.70;96.30;;;;;;4937328;29;20171;-77
2021/12/31 00:41:13;;;;;;;1.20;0.67;;;10.70;96.30;;;;;;4919957;29;20254;-77
2021/12/31 00:43:38;;;;;;;1.17;0.70;;;10.80;96.30;;;;;;4920058;29;20176;-77
2021/12/31 00:46:04;;;;;;;0.90;0.50;;;10.80;96.30;;;;;;4937053;29;20171;-77
2021/12/31 00:48:29;;;;;;;1.47;0.70;;;10.90;96.30;;;;;;4936904;29;20179;-77
2021/12/31 00:50:56;;;;;;;1.50;0.60;;;10.90;96.30;;;;;;4937199;29;20199;-78
2021/12/31 00:53:22;;;;;;;1.37;0.70;;;10.90;96.30;;;;;;4937206;29;20178;-78
2021/12/31 00:55:48;;;;;;;1.03;0.60;;;10.90;96.30;;;;;;4935763;29;20491;-77
2021/12/31 00:58:13;;;;;;;1.10;0.60;;;10.90;96.30;;;;;;4936847;29;20514;-77
2021/12/31 05:01:27;;;;;;;1.20;0.67;;;10.70;96.30;;;;;;5464107;23;20988;-78
2021/12/31 05:03:53;;;;;;;1.30;0.67;;;10.70;96.30;;;;;;4955759;29;20418;-76
2021/12/31 05:06:18;;;;;;;0.90;0.67;;;10.60;96.30;;;;;;4953904;29;20179;-78
2021/12/31 05:08:44;;;;;;;2.70;0.70;;;10.60;96.30;;;;;;4954582;29;20725;-77
2021/12/31 05:11:09;;;;;;;0.90;0.50;;;10.70;96.30;;;;;;4955674;29;20202;-77
2021/12/31 05:13:35;;;;;;;1.00;0.50;;;10.60;96.30;;;;;;4955758;29;20253;-77
2021/12/31 05:16:06;;;;;;;1.37;0.70;;;10.70;96.30;;;;;;4955566;29;20255;-76
2021/12/31 05:18:31;;;;;;;1.10;0.60;;;10.70;96.30;;;;;;4960872;29;20202;-76
2021/12/31 07:29:55;;;;;;;1.00;0.70;;;10.60;96.30;;;;;;1469311;26;20835;-75
2021/12/31 07:32:20;;;;;;;2.80;0.90;;;10.60;96.30;;;;;;4951330;29;20451;-74
2021/12/31 07:34:45;;;;;;;13.30;1.03;;;10.60;96.30;;;;;;4953567;29;20178;-75
2021/12/31 07:37:11;;;;;;;1.47;0.80;;;10.60;96.30;;;;;;4935909;29;20728;-76
2021/12/31 07:39:45;;;;;;;1.40;1.20;;;10.60;96.30;;;;;;4950686;29;20202;-74
2021/12/31 07:42:10;;;;;;;1.10;1.00;;;10.60;96.30;;;;;;4937256;29;20208;-74
2021/12/31 07:44:36;;;;;;;1.40;0.80;;;10.60;96.30;;;;;;4934438;29;20408;-75
2021/12/31 07:47:01;;;;;;;1.27;0.70;;;10.50;96.30;;;;;;4933928;29;20208;-75
2021/12/31 07:49:27;;;;;;;1.00;0.80;;;10.60;96.30;;;;;;4937770;29;20183;-75
2021/12/31 07:51:52;;;;;;;1.13;0.67;;;10.60;96.30;;;;;;4954094;29;20666;-76
2021/12/31 07:54:18;;;;;;;1.00;0.70;;;10.70;96.30;;;;;;4954642;29;20213;-76
2021/12/31 07:56:44;;;;;;;1.10;0.80;;;10.70;96.30;;;;;;4953139;29;20549;-75
2021/12/31 07:59:09;;;;;;;1.67;1.00;;;10.70;96.30;;;;;;4953254;29;20175;-75
2021/12/31 08:01:34;;;;;;;1.63;0.77;;;10.70;96.30;;;;;;4953418;29;20663;-75
2021/12/31 08:04:00;;;;;;;0.90;0.70;;;10.70;96.30;;;;;;4936134;29;20175;-75
2021/12/31 08:06:26;;;;;;;0.90;0.67;;;10.70;96.30;;;;;;4939032;29;20171;-76
2021/12/31 08:08:51;;;;;;;2.30;0.80;;;10.70;96.30;;;;;;4957749;29;20175;-76
2021/12/31 08:11:17;;;;;;;1.40;0.80;;;10.70;96.30;;;;;;4957700;29;20198;-76
2021/12/31 08:13:42;;;;;;;1.87;1.00;;;10.80;96.30;;;;;;4957232;29;20175;-75
2021/12/31 08:16:07;;;;;;;1.60;0.70;;;10.80;96.30;;;;;;4956397;29;20183;-75
2021/12/31 08:18:33;;;;;;;1.30;0.80;;;10.80;96.30;;;;;;4963047;28;20390;-75
2021/12/31 08:20:58;;;;;;;1.63;0.80;;;10.90;96.30;;;;;;4967221;28;20571;-74
2021/12/31 08:23:24;;;;;;;4.23;0.80;;;10.90;96.30;;;;;;4976036;28;20245;-75
2021/12/31 08:25:49;;;;;;;2.10;0.80;;;10.90;96.30;;;;;;4959401;28;20553;-74
2021/12/31 08:28:15;;;;;;;1.10;0.80;;;11.00;96.30;;;;;;4954116;29;20183;-74
2021/12/31 08:30:40;;;;;;;1.97;0.90;;;11.00;96.30;;;;;;4956310;29;20218;-74
2021/12/31 08:33:06;;;;;;;1.40;0.70;;;11.00;96.30;;;;;;4939191;29;20178;-75
2021/12/31 08:35:32;;;;;;;1.30;0.90;;;11.00;96.30;;;;;;4957813;28;20643;-74
2021/12/31 08:37:58;;;;;;;1.40;0.97;;;11.00;96.30;;;;;;4949792;29;20223;-75
2021/12/31 08:40:24;;;;;;;1.43;0.80;;;11.00;96.30;;;;;;4955641;28;20222;-74
2021/12/31 08:42:49;;;;;;;1.57;0.97;;;11.00;96.30;;;;;;4952817;29;20184;-76
2021/12/31 08:45:15;;;;;;;2.33;1.30;;;11.00;96.30;;;;;;4955218;28;20191;-74
2021/12/31 08:47:40;;;;;;;1.00;0.70;;;11.10;96.30;;;;;;4926895;29;20732;-75
2021/12/31 08:50:06;;;;;;;2.40;0.90;;;11.10;96.30;;;;;;4947965;29;20196;-75
2021/12/31 08:52:32;;;;;;;1.60;0.93;;;11.20;96.30;;;;;;4924944;29;20211;-74
2021/12/31 08:54:57;;;;;;;2.20;0.93;;;11.10;96.30;;;;;;4936695;29;20419;-75
2021/12/31 08:57:23;;;;;;;1.87;0.70;;;11.20;96.30;;;;;;4960286;28;20235;-74
2021/12/31 08:59:48;;;;;;;1.30;0.80;;;11.20;96.30;;;;;;4971958;28;20289;-76
2021/12/31 09:02:14;;;;;;;1.40;0.90;;;11.20;96.30;;;;;;4975061;28;20204;-75
2021/12/31 09:04:39;;;;;;;3.10;0.80;;;11.20;96.30;;;;;;4965937;28;20674;-75
2021/12/31 09:07:05;;;;;;;2.03;0.77;;;11.20;96.30;;;;;;4954988;29;20174;-76
2021/12/31 09:09:31;;;;;;;2.67;0.80;;;11.20;96.30;;;;;;4955538;29;20175;-76
2021/12/31 09:11:56;;;;;;;1.60;0.80;;;11.20;96.30;;;;;;4938601;29;20199;-76
2021/12/31 09:14:22;;;;;;;1.17;0.80;;;11.30;96.30;;;;;;4938675;29;20189;-76
2021/12/31 09:16:48;;;;;;;1.00;0.70;;;11.30;96.30;;;;;;4955029;28;20597;-77
2021/12/31 09:19:14;;;;;;;0.90;0.70;;;11.40;96.30;;;;;;4938918;29;20427;-77
2021/12/31 09:21:40;;;;;;;1.30;0.70;;;11.40;96.30;;;;;;4955740;29;20425;-77
2021/12/31 09:24:07;;;;;;;2.30;0.83;;;11.40;96.30;;;;;;4955581;29;20659;-77
2021/12/31 09:26:33;;;;;;;3.73;0.80;;;11.40;96.30;;;;;;4937144;29;20427;-76
2021/12/31 09:28:58;;;;;;;2.03;0.87;;;11.50;96.30;;;;;;4955804;29;20418;-78
2021/12/31 09:31:23;;;;;;;1.20;0.70;;;11.60;96.30;;;;;;4971770;28;20243;-76
2021/12/31 09:33:49;;;;;;;1.20;0.80;;;11.70;96.30;;;;;;4957096;28;20186;-74
2021/12/31 09:36:15;;;;;;;1.87;0.90;;;11.70;96.30;;;;;;4955681;28;20191;-75
2021/12/31 09:38:41;;;;;;;1.80;0.73;;;11.80;96.30;;;;;;4954664;29;20179;-76
2021/12/31 09:41:06;;;;;;;1.50;0.87;;;11.80;96.30;;;;;;4954934;29;20472;-75
2021/12/31 09:43:33;;;;;;;2.90;1.20;;;11.80;96.30;;;;;;4955214;29;20179;-75
2021/12/31 09:45:58;;;;;;;1.83;0.90;;;11.80;96.30;;;;;;4953180;29;20190;-76
2021/12/31 09:48:24;;;;;;;1.20;0.80;;;11.70;96.30;;;;;;4955285;29;21219;-76
2021/12/31 09:50:54;;;;;;;2.10;0.97;;;11.70;96.30;;;;;;4955232;29;20567;-76
2021/12/31 09:53:20;;;;;;;1.77;0.90;;;11.70;96.30;;;;;;4937760;29;20427;-75
2021/12/31 09:55:52;;;;;;;1.00;0.80;;;11.70;96.30;;;;;;4954392;29;20415;-74
2021/12/31 09:58:19;;;;;;;1.30;0.70;;;11.80;96.30;;;;;;4954864;29;20440;-77
2021/12/31 10:00:47;;;;;;;1.50;0.80;;;11.90;96.30;;;;;;4954197;29;21077;-75
2021/12/31 10:03:16;;;;;;;0.90;0.73;;;11.90;96.30;;;;;;4937621;29;20459;-74
2021/12/31 10:05:48;;;;;;;2.03;0.97;;;12.10;96.30;;;;;;4936310;29;20758;-78
2021/12/31 10:08:22;;;;;;;1.50;0.93;;;12.10;96.30;;;;;;4946758;29;20511;-76
2021/12/31 10:11:20;;;;;;;1.50;1.10;;;12.20;96.30;;;;;;4952662;29;20485;-77
2021/12/31 10:13:55;;;;;;;2.43;1.20;;;12.30;96.30;;;;;;4954713;29;20411;-77
2021/12/31 10:16:29;;;;;;;2.03;1.13;;;12.30;96.30;;;;;;4934072;29;20430;-76
2021/12/31 10:19:10;;;;;;;2.00;0.80;;;12.30;96.30;;;;;;4935363;29;20424;-76
2021/12/31 10:21:35;;;;;;;2.03;0.80;;;12.40;96.30;;;;;;4935445;29;20459;-76
2021/12/31 10:24:21;;;;;;;1.40;0.80;;;12.20;96.30;;;;;;4935670;29;20747;-76
2021/12/31 10:26:47;;;;;;;1.53;0.83;;;12.10;96.30;;;;;;4934953;29;20159;-75
2021/12/31 10:29:14;;;;;;;2.87;0.87;;;12.30;96.30;;;;;;4918430;29;20962;-75
2021/12/31 10:31:44;;;;;;;1.00;0.73;;;12.90;96.30;;;;;;4954135;29;20202;-75
2021/12/31 10:34:26;;;;;;;5.00;0.90;;;13.50;96.30;;;;;;4953942;29;20427;-76
2021/12/31 10:36:52;;;;;;;1.73;0.80;;;14.00;96.30;;;;;;4934530;29;20411;-75
2021/12/31 10:39:23;;;;;;;0.90;0.70;;;14.80;96.30;;;;;;4916161;28;20507;-77
2021/12/31 10:42:06;;;;;;;1.93;0.90;;;15.30;96.30;;;;;;4936828;29;20434;-77
2021/12/31 10:44:46;;;;;;;1.57;0.90;;;15.60;96.30;;;;;;4953864;29;20922;-76
2021/12/31 10:47:27;;;;;;;1.23;0.87;;;16.00;96.30;;;;;;4953305;28;20457;-76
2021/12/31 10:50:01;;;;;;;1.10;0.90;;;16.30;96.30;;;;;;4926230;29;20450;-76
2021/12/31 10:52:36;;;;;;;1.90;1.10;;;16.50;96.30;;;;;;4963543;28;20483;-76
2021/12/31 10:55:23;;;;;;;2.03;0.80;;;16.40;96.30;;;;;;4963588;28;20502;-76
2021/12/31 10:57:52;;;;;;;1.60;0.83;;;16.60;96.30;;;;;;4961093;28;20417;-76
2021/12/31 11:00:20;;;;;;;2.80;0.90;;;16.80;96.30;;;;;;4965327;28;20485;-76
2021/12/31 11:02:47;;;;;;;1.17;0.70;;;16.30;96.30;;;;;;4972685;28;20405;-76
2021/12/31 11:05:15;;;;;;;1.83;0.83;;;15.70;96.30;;;;;;4954933;28;20427;-76
2021/12/31 11:07:41;;;;;;;1.63;0.80;;;15.30;96.30;;;;;;4942472;29;20420;-76
2021/12/31 11:10:09;;;;;;;2.30;0.80;;;15.50;96.30;;;;;;4948441;29;20433;-76
2021/12/31 11:12:35;;;;;;;1.37;0.83;;;15.50;96.30;;;;;;4947996;29;20248;-76
2021/12/31 11:15:01;;;;;;;2.70;0.90;;;15.30;96.30;;;;;;4944967;29;20426;-75
2021/12/31 11:17:27;;;;;;;1.50;0.70;;;15.80;96.30;;;;;;4947753;28;20433;-75
2021/12/31 11:19:53;;;;;;;1.80;1.30;;;15.70;96.30;;;;;;4948536;28;20459;-75
2021/12/31 11:22:27;;;;;;;2.27;0.80;;;15.70;96.30;;;;;;4951485;28;20191;-76
2021/12/31 11:24:53;;;;;;;1.30;0.63;;;;;;;;;;4949981;29;20966;-76
2021/12/31 11:27:28;;;;;;;3.73;0.90;;;15.70;96.30;;;;;;4948673;29;20423;-76
2021/12/31 11:29:55;;;;;;;2.60;0.90;;;;;;;;;;4940221;28;20286;-77
2021/12/31 11:32:43;;;;;;;1.17;0.80;;;14.70;96.30;;;;;;4928811;29;21142;-76
2021/12/31 11:35:40;;;;;;;2.73;0.90;;;14.80;96.30;;;;;;4938673;29;20416;-76
2021/12/31 11:38:27;;;;;;;3.73;0.90;;;14.60;96.30;;;;;;4929530;29;20456;-76
2021/12/31 11:41:05;;;;;;;1.40;0.90;;;14.60;96.30;;;;;;4926275;28;20466;-76
2021/12/31 11:43:32;;;;;;;1.87;0.83;;;14.60;96.30;;;;;;4929181;29;20972;-78
2021/12/31 11:46:14;;;;;;;1.30;1.00;;;14.80;96.30;;;;;;4948856;29;20422;-78
2021/12/31 11:48:51;;;;;;;2.80;0.90;;;14.70;96.30;;;;;;4947282;29;20415;-78
2021/12/31 11:51:35;;;;;;;3.27;0.90;;;;;;;;;;4931645;29;20439;-78
2021/12/31 11:54:00;;;;;;;1.60;0.90;;;14.60;96.30;;;;;;4938983;29;20407;-78
2021/12/31 11:56:39;;;;;;;1.10;0.80;;;14.60;96.30;;;;;;4925893;29;20779;-78
2021/12/31 11:59:11;;;;;;;1.20;0.70;;;14.40;96.30;;;;;;4938755;29;20254;-79
2021/12/31 12:01:36;;;;;;;2.60;0.77;;;14.40;96.30;;;;;;4936551;29;20455;-79
2021/12/31 12:04:24;;;;;;;1.97;1.00;;;14.20;96.30;;;;;;4950316;29;20836;-78
2021/12/31 12:06:50;;;;;;;1.23;0.70;;;;;;;;;;4918229;29;20176;-77
2021/12/31 12:09:16;;;;;;;1.90;0.90;;;13.90;96.30;;;;;;4916210;29;20424;-78
2021/12/31 12:12:02;;;;;;;2.20;0.80;;;13.60;96.30;;;;;;4945936;29;20239;-78
2021/12/31 12:14:28;;;;;;;3.63;1.03;;;13.30;96.30;;;;;;4943575;29;20662;-78
2021/12/31 12:16:59;;;;;;;3.67;0.80;;;13.20;96.30;;;;;;4919376;29;20427;-78
2021/12/31 12:19:47;;;;;;;1.90;0.80;;;13.20;96.30;;;;;;4930895;29;20454;-78
2021/12/31 12:22:26;;;;;;;1.50;0.90;;;13.00;96.30;;;;;;4924713;29;20530;-78
2021/12/31 12:24:52;;;;;;;1.60;0.90;;;12.80;96.30;;;;;;4942231;29;20784;-78
2021/12/31 12:27:20;;;;;;;2.60;0.90;;;12.70;96.30;;;;;;4936454;29;20510;-78
2021/12/31 12:29:46;;;;;;;2.47;0.80;;;12.60;96.30;;;;;;4926578;29;20469;-78
2021/12/31 12:32:13;;;;;;;1.60;0.80;;;12.60;96.30;;;;;;4956319;29;20806;-79
2021/12/31 12:34:38;;;;;;;1.00;0.80;;;12.40;96.30;;;;;;4943664;29;20415;-78
2021/12/31 12:37:04;;;;;;;1.73;0.80;;;12.30;96.30;;;;;;4936929;29;20428;-78
2021/12/31 12:39:30;;;;;;;1.10;0.90;;;12.30;96.30;;;;;;4954062;29;20186;-78
2021/12/31 12:41:56;;;;;;;2.63;0.80;;;12.30;96.30;;;;;;4956293;28;20203;-78
2021/12/31 12:44:21;;;;;;;1.47;0.70;;;12.20;96.30;;;;;;4956033;29;20427;-78
2021/12/31 12:46:57;;;;;;;4.07;1.00;;;12.20;96.30;;;;;;4954448;29;20179;-79
2021/12/31 12:49:26;;;;;;;1.20;0.80;;;12.30;96.30;;;;;;4956089;28;20179;-78
2021/12/31 12:51:54;;;;;;;1.60;0.93;;;12.30;96.30;;;;;;4954760;28;20473;-77
2021/12/31 12:54:25;;;;;;;3.30;0.80;;;12.20;96.30;;;;;;4954980;29;20490;-79
2021/12/31 12:56:53;;;;;;;1.00;0.80;;;12.30;96.30;;;;;;4954317;29;20426;-78
2021/12/31 12:59:21;;;;;;;1.20;0.93;;;12.20;96.30;;;;;;4955959;29;20564;-77
2021/12/31 13:01:48;;;;;;;2.67;1.47;;;12.20;96.30;;;;;;4955949;28;21021;-78
2021/12/31 13:04:16;;;;;;;2.20;1.90;;;12.20;96.30;;;;;;4955773;28;20489;-77
2021/12/31 13:07:00;;;;;;;4.37;1.53;;;12.30;96.30;;;;;;4950778;29;20487;-79
2021/12/31 13:09:29;;;;;;;3.10;1.00;;;12.30;96.30;;;;;;4943299;29;20442;-77
2021/12/31 13:12:00;;;;;;;2.27;1.00;;;12.40;96.30;;;;;;4938593;29;20498;-78
2021/12/31 13:14:29;;;;;;;2.90;1.50;;;12.30;96.30;;;;;;4955268;29;20470;-78
2021/12/31 13:16:59;;;;;;;2.60;1.70;;;12.30;96.30;;;;;;4955252;29;20419;-77
2021/12/31 13:19:36;;;;;;;2.43;1.60;;;12.30;96.30;;;;;;4955624;29;20419;-78
2021/12/31 13:22:05;;;;;;;1.77;1.20;;;12.20;96.30;;;;;;4938359;29;20450;-78
2021/12/31 13:24:31;;;;;;;2.33;0.80;;;;;;;;;;4938304;29;20423;-79
2021/12/31 13:27:03;;;;;;;2.47;0.90;;;12.00;96.30;;;;;;4954931;29;20414;-78
2021/12/31 13:29:33;;;;;;;2.50;0.93;;;12.00;96.30;;;;;;4955511;29;20406;-77
2021/12/31 13:32:16;;;;;;;1.93;1.10;;;12.00;96.30;;;;;;4955456;29;20430;-77
2021/12/31 13:34:43;;;;;;;1.20;0.90;;;11.90;96.30;;;;;;4955114;29;20410;-77
2021/12/31 13:37:23;;;;;;;2.13;0.97;;;11.90;96.30;;;;;;4955519;29;20497;-81
2021/12/31 13:39:48;;;;;;;1.83;0.90;;;11.90;96.30;;;;;;4955719;29;20435;-79
2021/12/31 13:42:16;;;;;;;4.63;3.00;;;11.80;96.30;;;;;;4938211;29;20438;-79
2021/12/31 13:44:49;;;;;;;2.27;1.40;;;11.70;96.30;;;;;;4941820;29;20274;-80
2021/12/31 13:47:17;;;;;;;7.03;1.60;;;11.60;96.30;;;;;;4921079;29;20557;-80
2021/12/31 13:49:50;;;;;;;2.83;1.10;;;11.60;96.30;;;;;;4936905;29;20925;-81
2021/12/31 13:52:36;;;;;;;1.97;1.10;;;11.70;96.30;;;;;;4949098;29;20439;-80
2021/12/31 13:55:17;;;;;;;3.50;2.90;;;11.60;96.30;;;;;;4939063;29;20492;-80
2021/12/31 13:58:01;;;;;;;2.37;1.97;;;11.60;96.30;;;;;;4955346;28;20425;-79
2021/12/31 14:00:29;;;;;;;2.03;1.80;;;11.60;96.30;;;;;;4920424;29;20541;-80
2021/12/31 14:02:55;;;;;;;7.97;4.43;;;11.60;96.30;;;;;;4933415;29;20434;-78
2021/12/31 14:05:27;;;;;;;2.30;1.17;;;11.60;96.30;;;;;;4954544;29;20413;-79
2021/12/31 14:10:23;;;;;;;1.90;1.70;;;;;;;;;;4954866;28;20474;-79
2021/12/31 14:13:03;;;;;;;3.40;1.20;;;11.60;96.30;;;;;;4951969;29;20446;-77
2021/12/31 14:15:34;;;;;;;2.40;1.33;;;11.50;96.30;;;;;;4945677;29;20423;-80
2021/12/31 14:18:02;;;;;;;3.10;1.17;;;11.40;96.30;;;;;;4952907;29;20431;-78
2021/12/31 14:20:31;;;;;;;4.20;2.10;;;11.30;96.30;;;;;;4937328;29;20451;-79
2021/12/31 14:22:57;;;;;;;2.03;1.10;;;11.20;96.30;;;;;;4954615;29;20780;-76
2021/12/31 14:25:25;;;;;;;1.20;0.93;;;11.20;96.30;;;;;;4954422;29;20481;-76
2021/12/31 14:27:52;;;;;;;1.40;1.10;;;11.20;96.30;;;;;;4953771;29;20562;-76
2021/12/31 14:30:18;;;;;;;1.40;0.90;;;11.00;96.30;;;;;;4954211;29;20961;-77
2021/12/31 14:32:44;;;;;;;6.60;1.50;;;11.00;96.30;;;;;;4954371;29;20433;-76
2021/12/31 14:35:13;;;;;;;3.20;1.50;;;11.00;96.30;;;;;;4951804;29;20422;-76
2021/12/31 14:37:40;;;;;;;3.27;1.80;;;11.00;96.30;;;;;;4954077;29;20501;-76
2021/12/31 14:40:12;;;;;;;4.43;1.80;;;11.00;96.30;;;;;;4970555;28;20482;-76
2021/12/31 14:42:39;;;;;;;6.13;2.90;;;11.00;96.30;;;;;;4935258;29;20934;-76
2021/12/31 14:45:07;;;;;;;8.17;2.60;;;10.90;96.30;;;;;;4944568;29;20906;-79
2021/12/31 14:47:35;;;;;;;6.60;3.37;;;10.80;96.30;;;;;;4941866;29;20470;-76
2021/12/31 14:50:00;;;;;;;3.37;2.30;;;10.70;96.30;;;;;;4953271;29;20430;-78
2021/12/31 14:52:26;;;;;;;3.97;2.17;;;10.80;96.30;;;;;;4954733;29;20470;-77
2021/12/31 14:54:52;;;;;;;1.70;1.23;;;;;;;;;;4954582;29;20227;-77
2021/12/31 14:57:18;;;;;;;2.03;1.00;;;10.70;96.30;;;;;;4953861;29;20846;-77
2021/12/31 14:59:43;;;;;;;2.83;1.40;;;10.70;96.30;;;;;;4936832;29;20466;-77
2021/12/31 15:47:50;;;;;;;1.23;0.90;;;11.20;96.30;;;;;;5121565;23;20486;-77
2021/12/31 15:50:16;;;;;;;2.70;0.90;;;11.10;96.30;;;;;;4952212;29;20418;-78
2021/12/31 15:52:41;;;;;;;2.07;1.00;;;11.40;96.30;;;;;;4952992;29;21038;-79
2021/12/31 15:55:07;;;;;;;7.10;2.03;;;11.30;96.30;;;;;;4952802;29;20189;-77
2021/12/31 15:57:33;;;;;;;2.23;1.60;;;11.20;96.30;;;;;;4952443;29;20183;-77
2021/12/31 15:59:59;;;;;;;1.47;1.37;;;11.20;96.30;;;;;;4952410;29;20198;-77
2021/12/31 16:02:24;;;;;;;2.10;1.40;;;11.20;96.30;;;;;;4952775;29;20634;-78
2021/12/31 16:04:50;;;;;;;2.47;1.10;;;11.10;96.30;;;;;;4953783;29;20647;-78
2021/12/31 16:07:16;;;;;;;2.30;1.30;;;11.10;96.30;;;;;;4936435;29;20273;-77
2021/12/31 16:09:42;;;;;;;1.70;1.27;;;11.10;96.30;;;;;;4954052;29;20521;-77
2021/12/31 16:12:08;;;;;;;4.13;1.27;;;11.00;96.30;;;;;;4953686;29;20191;-78
2021/12/31 16:14:35;;;;;;;5.23;1.17;;;11.00;96.30;;;;;;4953482;29;20968;-77
2021/12/31 16:17:01;;;;;;;1.20;1.10;;;11.10;96.30;;;;;;4953457;29;20415;-77
2021/12/31 16:19:26;;;;;;;1.60;1.13;;;11.10;96.30;;;;;;4936137;29;20938;-79
2021/12/31 16:21:53;;;;;;;3.00;1.23;;;11.20;96.30;;;;;;4935992;29;20717;-77
2021/12/31 16:24:18;;;;;;;1.53;0.90;;;11.20;96.30;;;;;;4953456;29;20587;-77
2021/12/31 16:26:45;;;;;;;1.23;0.93;;;11.20;96.30;;;;;;4955179;28;20442;-77
2021/12/31 16:29:11;;;;;;;1.30;1.00;;;11.20;96.30;;;;;;4956783;29;20665;-78
2021/12/31 16:31:37;;;;;;;2.10;1.20;;;11.20;96.30;;;;;;4956634;29;20430;-77
2021/12/31 16:34:02;;;;;;;1.40;1.10;;;11.20;96.30;;;;;;4956723;29;20175;-77
2021/12/31 16:36:28;;;;;;;1.17;1.00;;;;;;;;;;4938195;29;20186;-78
2021/12/31 16:38:54;;;;;;;1.87;1.30;;;11.10;96.30;;;;;;4937534;29;20206;-78
2021/12/31 16:41:19;;;;;;;1.20;0.80;;;11.10;96.30;;;;;;4937370;29;20211;-78
2021/12/31 16:43:45;;;;;;;2.43;1.50;;;11.00;96.30;;;;;;4937298;29;20604;-77
2021/12/31 16:46:10;;;;;;;2.03;1.00;;;;;;;;;;4936992;29;20187;-77
2021/12/31 16:48:36;;;;;;;2.13;1.13;;;11.10;96.30;;;;;;4937196;29;20259;-78
2021/12/31 16:51:01;;;;;;;1.47;1.30;;;11.10;96.30;;;;;;4920194;29;20203;-77
2021/12/31 16:53:27;;;;;;;3.43;1.20;;;11.10;96.30;;;;;;4937335;29;20540;-77
2021/12/31 16:55:53;;;;;;;1.33;1.20;;;;;;;;;;4937037;29;20187;-77
2021/12/31 16:58:18;;;;;;;1.80;1.30;;;11.10;96.30;;;;;;4937346;29;20183;-77
2021/12/31 17:00:44;;;;;;;1.90;1.17;;;11.10;96.30;;;;;;4936829;29;20211;-78
2021/12/31 17:03:09;;;;;;;1.90;1.17;;;11.20;96.30;;;;;;4921045;29;20176;-78
2021/12/31 17:05:35;;;;;;;1.73;1.20;;;11.20;96.30;;;;;;4940991;29;20543;-77
2021/12/31 17:08:01;;;;;;;1.83;1.23;;;11.10;96.30;;;;;;4940150;29;20232;-78
2021/12/31 17:10:33;;;;;;;2.13;1.10;;;11.20;96.30;;;;;;4934280;29;20179;-78
2021/12/31 17:12:58;;;;;;;2.53;1.20;;;11.10;96.30;;;;;;4955965;29;20442;-77
2021/12/31 17:15:24;;;;;;;1.63;1.03;;;11.20;96.30;;;;;;4956085;29;20459;-77
2021/12/31 17:17:50;;;;;;;2.33;1.20;;;;;;;;;;4958287;29;20261;-77
2021/12/31 17:20:15;;;;;;;2.33;1.47;;;11.10;96.30;;;;;;4962703;29;20195;-77
2021/12/31 17:22:41;;;;;;;8.53;4.30;;;11.10;96.30;;;;;;4965156;29;20182;-78
2021/12/31 17:25:08;;;;;;;2.60;1.77;;;11.10;96.30;;;;;;4944861;29;20211;-78
2021/12/31 17:27:34;;;;;;;7.50;3.53;;;11.00;96.30;;;;;;4938518;29;20185;-76
2021/12/31 17:29:59;;;;;;;5.70;3.00;;;11.00;96.30;;;;;;4955554;29;20813;-78
2021/12/31 17:32:25;;;;;;;2.10;1.23;;;11.00;96.30;;;;;;4955614;29;20242;-79
2021/12/31 17:34:51;;;;;;;2.70;1.50;;;11.00;96.30;;;;;;4950318;29;20222;-78
2021/12/31 17:37:18;;;;;;;1.20;1.10;;;11.00;96.30;;;;;;4935902;29;20262;-79
2021/12/31 17:39:43;;;;;;;2.07;1.20;;;10.90;96.30;;;;;;4935962;29;20431;-78
2021/12/31 17:42:09;;;;;;;2.33;1.00;;;10.90;96.30;;;;;;4936140;29;20490;-78
2021/12/31 17:44:35;;;;;;;1.97;1.10;;;10.90;96.30;;;;;;4918876;29;20203;-78
2021/12/31 17:47:00;;;;;;;1.10;0.97;;;10.80;96.30;;;;;;4935891;29;20557;-78
2021/12/31 17:49:26;;;;;;;1.77;1.13;;;10.90;96.30;;;;;;4936034;29;20175;-78
2021/12/31 17:51:51;;;;;;;2.90;1.23;;;10.90;96.30;;;;;;4919128;29;20282;-79
2021/12/31 17:54:17;;;;;;;2.10;1.13;;;10.90;96.30;;;;;;4936045;29;20514;-78
2021/12/31 17:56:45;;;;;;;2.13;1.40;;;10.80;96.30;;;;;;4935730;29;20602;-79
2021/12/31 17:59:11;;;;;;;1.30;0.90;;;10.80;96.30;;;;;;4935899;29;20171;-79
2021/12/31 18:01:36;;;;;;;2.30;1.23;;;10.80;96.30;;;;;;4935835;29;20455;-78
2021/12/31 18:04:03;;;;;;;1.93;1.63;;;10.80;96.30;;;;;;4918716;29;20459;-78
2021/12/31 18:06:29;;;;;;;4.80;2.47;;;10.80;96.30;;;;;;4935499;29;20171;-78
2021/12/31 18:08:55;;;;;;;2.40;2.10;;;10.80;96.30;;;;;;4921314;29;20415;-78
2021/12/31 18:11:22;;;;;;;3.00;1.30;;;10.80;96.30;;;;;;4954721;29;20809;-77
2021/12/31 18:13:47;;;;;;;8.57;6.60;;;10.80;96.30;;;;;;4937578;29;20186;-76
2021/12/31 18:16:14;;;;;;;1.93;1.40;;;;;;;;;;4937241;29;20862;-78
2021/12/31 18:18:39;;;;;;;6.03;3.83;;;10.80;96.30;;;;;;4937521;29;20210;-78
2021/12/31 18:21:06;;;;;;;2.53;2.33;;;10.80;96.30;;;;;;4954979;29;21146;-78
2021/12/31 18:23:32;;;;;;;3.27;1.27;;;10.80;96.30;;;;;;4954780;29;20178;-78
2021/12/31 18:25:57;;;;;;;3.67;2.40;;;10.90;96.30;;;;;;4954362;29;20406;-78
2021/12/31 18:28:23;;;;;;;2.00;1.47;;;10.80;96.30;;;;;;4937285;29;20214;-78
2021/12/31 18:30:50;;;;;;;6.80;1.90;;;10.80;96.30;;;;;;4954511;29;20191;-78
2021/12/31 18:33:15;;;;;;;1.53;1.40;;;10.80;96.30;;;;;;4954532;29;20505;-78
2021/12/31 18:35:41;;;;;;;1.60;1.13;;;10.80;96.30;;;;;;4942395;29;20798;-76
2021/12/31 18:38:06;;;;;;;3.30;3.00;;;10.80;96.30;;;;;;4918015;29;20182;-78
2021/12/31 18:40:32;;;;;;;5.40;2.43;;;10.80;96.30;;;;;;4917778;29;20302;-78
2021/12/31 18:42:57;;;;;;;6.07;1.60;;;10.70;96.30;;;;;;4934998;29;20227;-78
2021/12/31 18:45:24;;;;;;;2.10;1.40;;;10.70;96.30;;;;;;4934903;29;20258;-75
2021/12/31 18:47:51;;;;;;;3.37;1.60;;;10.70;96.30;;;;;;4934835;29;20187;-74
2021/12/31 18:50:22;;;;;;;1.57;1.10;;;10.80;96.30;;;;;;4934791;29;20426;-76
2021/12/31 18:52:50;;;;;;;1.77;1.27;;;10.70;96.30;;;;;;4917883;29;20416;-75
2021/12/31 18:55:16;;;;;;;3.40;1.60;;;10.80;96.30;;;;;;4935117;29;20419;-75
2021/12/31 18:57:42;;;;;;;4.07;1.47;;;10.80;96.30;;;;;;4934644;29;20527;-75
2021/12/31 19:00:08;;;;;;;1.80;1.33;;;10.80;96.30;;;;;;4934878;29;20203;-75
2021/12/31 19:02:34;;;;;;;2.30;1.50;;;10.80;96.30;;;;;;4934910;29;20446;-75
2021/12/31 19:05:00;;;;;;;3.20;1.43;;;10.80;96.30;;;;;;4934886;29;20511;-75
2021/12/31 19:07:25;;;;;;;2.13;1.27;;;10.80;96.30;;;;;;4917565;29;20407;-75
2021/12/31 19:09:51;;;;;;;3.20;1.90;;;10.80;96.30;;;;;;4945170;29;20226;-78
2021/12/31 19:12:16;;;;;;;4.20;1.70;;;10.90;96.30;;;;;;4936600;29;20205;-75
2021/12/31 19:14:42;;;;;;;3.37;1.50;;;10.90;96.30;;;;;;4953684;29;20202;-76
2021/12/31 19:17:07;;;;;;;3.93;1.43;;;10.90;96.30;;;;;;4953697;29;20174;-75
2021/12/31 19:19:33;;;;;;;3.13;1.80;;;11.00;96.30;;;;;;4953605;29;20541;-75
2021/12/31 19:21:59;;;;;;;2.03;1.33;;;10.90;96.30;;;;;;4936476;29;20592;-77
2021/12/31 19:24:24;;;;;;;2.30;1.50;;;10.90;96.30;;;;;;4953720;29;20510;-78
2021/12/31 19:26:50;;;;;;;3.73;1.37;;;10.90;96.30;;;;;;4953593;29;20187;-74
2021/12/31 19:29:15;;;;;;;1.83;1.37;;;10.90;96.30;;;;;;4953555;29;20262;-75
2021/12/31 19:31:41;;;;;;;2.60;1.67;;;10.90;96.30;;;;;;4953643;29;20199;-75
2021/12/31 19:34:06;;;;;;;3.23;1.63;;;10.80;96.30;;;;;;4953755;29;20183;-75
2021/12/31 19:36:32;;;;;;;5.93;1.83;;;10.90;96.30;;;;;;4934678;29;20644;-75
2021/12/31 19:38:57;;;;;;;1.90;1.50;;;10.80;96.30;;;;;;4934409;29;20194;-75
2021/12/31 19:41:23;;;;;;;1.70;1.20;;;10.80;96.30;;;;;;4934220;29;20219;-76
2021/12/31 19:43:48;;;;;;;4.50;1.73;;;10.70;96.30;;;;;;4934231;29;20199;-77
2021/12/31 19:46:14;;;;;;;2.37;1.43;;;10.70;96.30;;;;;;4933703;29;20215;-75
2021/12/31 19:48:40;;;;;;;3.70;1.80;;;10.80;96.30;;;;;;4934272;29;20656;-76
2021/12/31 19:51:05;;;;;;;2.97;1.57;;;10.70;96.30;;;;;;4934096;29;20656;-75
2021/12/31 19:53:31;;;;;;;2.40;1.37;;;10.70;96.30;;;;;;4934206;29;20198;-77